Aviation Digital Data Service (ADDS)

Output produced by METARs form (2336 UTC 23 May 2022)
found at http://www.aviationweather.gov/metar/data/
 
EBBE 232325Z AUTO 22009KT 9999 FEW011/// BKN085/// BKN120/// 12/11 Q1003 BLU
TAF EBBE 231614Z 2319/2407 25010G20KT SCT015 BKN030 
     TEMPO 2317/2323 26015G25KT 5000 -RA BKN012 BKN020 
     PROB30 
     TEMPO 2317/2322 3000 RA BKN010 BKN015
       
EBBR 232320Z 25011KT 9999 FEW017 13/10 Q1002 NOSIG
TAF EBBR 232320Z 2400/2506 24009KT 9999 SCT018 
     PROB30 
     TEMPO 2401/2405 4000 SHRA BKN008 BKN014CB 
     PROB40 
     TEMPO 2409/2419 24018G30KT 4000 SHRA BKN014CB
       
EBCI 232320Z 24010KT 9999 FEW006 SCT011 11/10 Q1003 TEMPO 4000 -RADZ BKN008
TAF EBCI 232320Z 2400/2506 24010KT 9999 SCT014 
     PROB30 
     TEMPO 2401/2405 3800 SHRA BKN006 BKN012CB 
     PROB40 
     TEMPO 2409/2419 24018G30KT 4000 SHRA BKN014CB 
     PROB30 
     TEMPO 2504/2506 3000 BR MIFG
       
TAF EBCV 231638Z 2319/2407 27010KT 9999 SCT015 BKN025 
     BECMG 2319/2321 FEW020 
     BECMG 2401/2403 23012G22KT 9999 BY EBWM
       
EBAW 232320Z AUTO 22008KT 190V250 CAVOK 13/10 Q1002
TAF EBAW 232320Z 2400/2409 23009KT 9999 SCT020 
     PROB30 
     TEMPO 2401/2405 4000 SHRA BKN012 
     PROB40 
     TEMPO 2407/2409 23018G30KT 4000 SHRA BKN014CB
       
EBFS 232325Z AUTO 25006KT 9999 BKN055/// OVC110/// 11/10 Q1003 BLU
TAF EBFS 231630Z 2319/2407 27010KT 5000 BR BKN006 BKN010 
     TEMPO 2319/2321 2000 -DZ BKN002 BKN004 
     BECMG 2321/2323 9999 NSW FEW006 BKN040 
     BECMG 2402/2404 SCT015 BKN030 
     TEMPO 2403/2407 4000 -SHRA SCT012TCU BKN020
       
EBBL 232325Z AUTO 23008KT 7000 -DZ OVC010/// 14/13 Q1002 GRN
TAF EBBL 231541Z 2319/2407 23010KT 9999 SCT010 BKN015 
     PROB30 
     TEMPO 2320/2324 6000 -RA 
     BECMG 2400/2402 SCT020 BKN060
       
EBFN 232325Z AUTO 22008KT 9999 SCT077/// BKN150/// 12/11 Q1001 BLU
TAF EBFN 231541Z 2319/2407 24014G24KT 8000 FEW018 BKN110 
     TEMPO 2319/2320 7000 SCT006 BKN007 BKN018 
     PROB30 
     TEMPO 2319/2320 4000 -RADZ BKN006 
     BECMG 2323/2401 SCT010
       
EBLG 232320Z 25011KT 9999 SCT009 BKN012 13/12 Q1003 TEMPO 3000 -SHRA BKN006
TAF EBLG 232320Z 2400/2506 23009KT 9999 SCT016 
     PROB30 
     TEMPO 2400/2408 3800 SHRA BKN007 BKN012CB 
     PROB40 
     TEMPO 2410/2419 23018G30KT 4000 SHRA BKN014CB 
     PROB30 
     TEMPO 2504/2506 3000 BR MIFG 
       
EBOS 232320Z 23013KT CAVOK 11/10 Q1002 NOSIG
TAF EBOS 232320Z 2400/2506 23010KT 9999 SCT020 
     PROB30 
     TEMPO 2400/2405 4000 SHRA BKN008 
     PROB30 
     TEMPO 2405/2407 4000 SHRA BKN008 BKN014CB 
     PROB40 
     TEMPO 2407/2417 23018G30KT 4000 SHRA BKN014CB